Time;durP1;ratioP1;P1;durP2;ratioP2;P2;SDS_P1;SDS_P2;PMS_P1;PMS_P2;Temp;Humidity;BMP_temperature;BMP_pressure;BME280_temperature;BME280_humidity;BME280_pressure;Samples;Min_cycle;Max_cycle;Signal;HPM_P1;HPM_P2
2022/07/02 00:01:18;;;;;;;4.50;1.20;;;;;;;18.83;77.74;98549.41;4365467;32;20082;-85
2022/07/02 00:03:54;;;;;;;1.25;1.00;;;;;;;18.97;77.00;98525.75;4366762;32;20142;-86
2022/07/02 00:06:25;;;;;;;1.90;1.10;;;;;;;18.86;77.31;98543.94;4366141;32;20533;-86
2022/07/02 00:08:54;;;;;;;2.17;1.30;;;;;;;18.95;76.94;98532.84;4351977;32;20165;-86
2022/07/02 00:11:21;;;;;;;2.60;1.20;;;;;;;18.77;77.57;98503.56;4365746;32;20117;-86
2022/07/02 00:13:52;;;;;;;5.28;1.37;;;;;;;18.61;78.31;98476.81;4366438;32;20147;-86
2022/07/02 00:16:19;;;;;;;2.53;0.90;;;;;;;18.56;78.86;98468.44;4366430;32;20162;-86
2022/07/02 00:18:47;;;;;;;3.30;1.10;;;;;;;18.30;80.02;98458.94;4369201;32;20099;-87
2022/07/02 00:21:14;;;;;;;1.98;0.95;;;;;;;17.99;82.11;98411.38;4355931;32;20211;-86
2022/07/02 00:23:41;;;;;;;4.80;1.60;;;;;;;18.06;82.05;98393.50;4368802;32;20155;-87
2022/07/02 00:26:16;;;;;;;2.37;1.08;;;;;;;18.26;81.34;98382.53;4354957;32;20268;-87
2022/07/02 00:28:46;;;;;;;2.28;1.40;;;;;;;18.32;81.15;98369.06;4367427;32;20182;-87
2022/07/02 00:31:13;;;;;;;4.78;1.27;;;;;;;18.26;81.63;98322.47;4354561;32;20403;-87
2022/07/02 00:33:40;;;;;;;1.83;0.90;;;;;;;18.08;82.50;98316.75;4366299;32;20434;-87
2022/07/02 00:36:07;;;;;;;1.75;1.17;;;;;;;17.88;83.51;98294.63;4352501;32;20127;-87
2022/07/02 00:38:34;;;;;;;2.90;1.20;;;;;;;18.15;82.50;98302.31;4366041;32;20496;-87
2022/07/02 00:41:02;;;;;;;3.45;1.20;;;;;;;18.16;82.93;98298.75;4366003;32;20095;-87
2022/07/02 00:43:29;;;;;;;2.42;1.02;;;;;;;18.33;81.71;98291.53;4352068;32;20083;-87
2022/07/02 00:45:57;;;;;;;2.33;1.20;;;;;;;18.37;81.42;98283.38;4367041;32;20134;-87
2022/07/02 00:48:24;;;;;;;1.90;1.02;;;;;;;18.59;80.26;98266.16;4353938;32;20125;-87
2022/07/02 00:50:51;;;;;;;3.20;1.42;;;;;;;18.63;80.04;98255.41;4368482;32;20166;-87
2022/07/02 00:53:19;;;;;;;2.58;1.23;;;;;;;18.49;80.85;98224.19;4368697;32;20079;-86
2022/07/02 00:55:55;;;;;;;2.70;1.08;;;;;;;18.55;80.38;98183.72;4368359;32;20111;-86
2022/07/02 00:58:22;;;;;;;3.37;1.02;;;;;;;18.62;79.62;98167.50;4368024;32;20222;-86
2022/07/02 01:00:49;;;;;;;2.08;1.05;;;;;;;18.79;78.55;98167.09;4368032;32;20170;-86
2022/07/02 01:03:17;;;;;;;2.75;0.82;;;;;;;19.19;77.00;98165.88;4368301;32;20193;-86
2022/07/02 01:05:45;;;;;;;0.98;0.70;;;;;;;19.17;77.39;98162.56;4368213;32;20103;-86
2022/07/02 01:11:01;;;;;;;3.15;1.00;;;;;;;19.09;78.59;98197.13;4368346;32;20486;-86
2022/07/02 01:13:32;;;;;;;2.37;1.00;;;;;;;19.45;77.03;98196.13;4368196;32;20497;-86
2022/07/02 01:16:00;;;;;;;2.05;1.05;;;;;;;19.60;76.14;98208.06;4367233;32;20096;-87
2022/07/02 01:18:27;;;;;;;4.55;1.58;;;;;;;20.38;72.52;98264.81;4352958;32;20150;-87
2022/07/02 01:20:54;;;;;;;2.05;1.00;;;;;;;20.53;72.29;98249.72;4365674;32;20133;-88
2022/07/02 01:23:21;;;;;;;2.45;1.30;;;;;;;19.80;76.70;98269.38;4367086;32;20163;-87
2022/07/02 01:25:50;;;;;;;3.20;1.20;;;;;;;19.70;77.50;98284.13;4353630;32;20064;-87
2022/07/02 01:28:18;;;;;;;2.70;1.30;;;;;;;18.90;82.11;98247.34;4366581;32;20134;-87
2022/07/02 01:30:45;;;;;;;3.55;1.45;;;;;;;18.63;83.87;98272.84;4367259;32;20461;-87
2022/07/02 01:33:12;;;;;;;3.80;1.40;;;;;;;18.77;83.32;98281.38;4353647;32;20102;-87
2022/07/02 01:35:39;;;;;;;3.58;1.58;;;;;;;18.34;84.70;98283.59;4367171;32;20055;-87
2022/07/02 01:38:06;;;;;;;4.35;1.27;;;;;;;18.06;86.19;98269.00;4366758;32;20118;-87
2022/07/02 01:40:33;;;;;;;4.37;1.55;;;;;;;17.63;88.69;98258.88;4366478;32;20117;-87
2022/07/02 01:43:00;;;;;;;3.62;1.48;;;;;;;17.44;89.94;98262.81;4366667;32;20134;-87
2022/07/02 01:45:27;;;;;;;3.42;1.55;;;;;;;17.34;90.22;98257.41;4365698;32;20083;-86
2022/07/02 01:47:55;;;;;;;4.32;1.50;;;;;;;17.48;89.95;98256.47;4367128;32;20158;-87
2022/07/02 01:50:22;;;;;;;3.83;1.65;;;;;;;17.28;91.02;98260.44;4366111;32;20150;-87
2022/07/02 01:52:51;;;;;;;4.20;1.52;;;;;;;16.84;92.75;98261.56;4366440;32;20143;-87
2022/07/02 01:55:20;;;;;;;3.03;1.50;;;;;;;16.90;92.52;98252.50;4367936;32;20115;-86
2022/07/02 01:57:48;;;;;;;3.30;1.52;;;;;;;16.68;92.99;98253.06;4354854;32;20166;-87
2022/07/02 02:00:15;;;;;;;3.08;1.42;;;;;;;16.68;91.97;98250.44;4369035;32;20095;-86
2022/07/02 02:02:42;;;;;;;6.90;1.80;;;;;;;16.66;91.58;98247.09;4369558;32;20123;-86
2022/07/02 02:05:09;;;;;;;2.42;1.33;;;;;;;16.82;89.84;98255.63;4354769;32;20159;-86
2022/07/02 02:07:36;;;;;;;3.20;1.23;;;;;;;16.65;nan;98264.47;4368176;32;20150;-87
2022/07/02 02:10:04;;;;;;;2.97;1.45;;;;;;;16.96;88.31;98265.97;4367724;32;35790;-86
2022/07/02 02:12:31;;;;;;;2.75;1.40;;;;;;;16.80;88.57;98274.88;4369113;32;20110;-87
2022/07/02 02:14:59;;;;;;;3.62;1.50;;;;;;;17.06;87.33;98281.88;4367293;32;20111;-87
2022/07/02 02:17:26;;;;;;;2.70;1.48;;;;;;;16.72;88.50;98293.63;4369211;32;20111;-86
2022/07/02 02:19:53;;;;;;;4.18;1.40;;;;;;;16.81;88.17;98298.25;4368863;32;20478;-86
2022/07/02 02:22:20;;;;;;;3.37;1.48;;;;;;;16.91;87.50;98301.13;4368512;32;20150;-87
2022/07/02 02:24:47;;;;;;;2.83;1.48;;;;;;;16.86;87.93;98284.94;4368504;32;20112;-87
2022/07/02 02:27:14;;;;;;;4.00;1.45;;;;;;;16.71;88.50;98297.19;4369272;32;20139;-86
2022/07/02 02:29:41;;;;;;;3.17;1.60;;;;;;;16.52;89.71;98304.44;4368618;32;20154;-86
2022/07/02 02:32:08;;;;;;;4.05;1.45;;;;;;;16.46;90.06;98314.28;4368070;32;20103;-86
2022/07/02 02:34:37;;;;;;;4.18;1.70;;;;;;;16.45;90.06;98310.03;4368846;32;20090;-86
2022/07/02 02:37:04;;;;;;;2.87;1.58;;;;;;;16.62;89.73;98321.16;4370016;32;20090;-86
2022/07/02 02:39:31;;;;;;;3.50;1.50;;;;;;;16.31;91.32;98317.03;4355534;32;20105;-86
2022/07/02 02:41:58;;;;;;;4.70;1.80;;;;;;;16.37;91.28;98327.88;4366328;32;20485;-86
2022/07/02 02:44:25;;;;;;;5.55;1.87;;;;;;;16.42;90.98;98332.81;4368395;32;20423;-86
2022/07/02 02:46:52;;;;;;;4.10;1.80;;;;;;;16.37;91.55;98340.91;4368477;32;20117;-86
2022/07/02 02:49:19;;;;;;;4.03;1.73;;;;;;;16.49;90.71;98340.16;4367873;32;20809;-87
2022/07/02 02:51:46;;;;;;;4.07;1.87;;;;;;;16.42;90.93;98364.06;4366510;32;20163;-87
2022/07/02 02:54:13;;;;;;;7.00;2.03;;;;;;;16.35;91.46;98355.78;4367300;32;20460;-86
2022/07/02 02:56:40;;;;;;;4.78;1.73;;;;;;;16.33;91.46;98368.06;4366923;32;20073;-86
2022/07/02 02:59:07;;;;;;;6.82;2.40;;;;;;;16.42;91.25;98364.06;4368183;32;20406;-86
2022/07/02 03:01:34;;;;;;;6.78;2.50;;;;;;;16.41;91.21;98373.66;4368365;32;20099;-86
2022/07/02 03:04:01;;;;;;;4.82;1.95;;;;;;;16.17;92.35;98378.59;4368463;32;20404;-87
2022/07/02 03:06:28;;;;;;;5.70;2.40;;;;;;;16.09;92.82;98374.78;4369201;32;20095;-86
2022/07/02 03:08:55;;;;;;;7.25;2.20;;;;;;;16.02;93.56;98389.91;4368645;32;20082;-86
2022/07/02 03:11:22;;;;;;;5.03;2.28;;;;;;;16.03;93.15;98383.75;4369341;32;20094;-86
2022/07/02 03:13:49;;;;;;;5.15;2.10;;;;;;;16.39;91.34;98385.09;4369272;32;20131;-86
2022/07/02 03:16:16;;;;;;;3.90;2.00;;;;;;;16.33;91.54;98394.13;4370539;32;20111;-86
2022/07/02 03:18:43;;;;;;;4.05;1.62;;;;;;;16.18;91.94;98376.81;4369047;32;20083;-85
2022/07/02 03:21:10;;;;;;;5.82;2.40;;;;;;;16.10;92.36;98382.47;4369661;32;20095;-86
2022/07/02 03:23:37;;;;;;;4.78;2.15;;;;;;;16.10;92.54;98405.06;4369460;32;20102;-86
2022/07/02 03:26:04;;;;;;;5.47;2.00;;;;;;;16.34;91.15;98407.97;4369119;32;20063;-86
2022/07/02 03:28:31;;;;;;;6.47;2.35;;;;;;;16.22;91.67;98396.53;4368326;32;20483;-86
2022/07/02 03:30:58;;;;;;;8.85;2.47;;;;;;;16.45;90.81;98411.59;4355091;32;20091;-86
2022/07/02 03:33:25;;;;;;;3.40;1.73;;;;;;;16.44;90.48;98411.69;4368845;32;20099;-86
2022/07/02 03:35:53;;;;;;;5.97;2.40;;;;;;;16.45;90.06;98393.37;4355051;32;20093;-86
2022/07/02 03:38:20;;;;;;;2.92;1.83;;;;;;;16.45;90.30;98409.00;4354171;32;20103;-87
2022/07/02 03:40:47;;;;;;;4.62;2.00;;;;;;;16.51;89.98;98423.41;4368376;32;20732;-86
2022/07/02 03:43:14;;;;;;;5.28;1.92;;;;;;;16.80;88.55;98416.47;4368896;32;20078;-86
2022/07/02 03:45:42;;;;;;;3.90;1.90;;;;;;;16.65;89.09;98412.16;4369158;32;20079;-86
2022/07/02 03:48:09;;;;;;;3.37;1.85;;;;;;;16.69;88.95;98422.34;4369539;32;20178;-85
2022/07/02 03:50:38;;;;;;;4.12;2.10;;;;;;;16.59;88.89;98431.63;4369171;32;20096;-85
2022/07/02 03:53:05;;;;;;;3.90;2.03;;;;;;;16.62;89.02;98439.22;4370206;32;20103;-86
2022/07/02 03:55:33;;;;;;;4.78;2.10;;;;;;;16.87;87.73;98448.16;4357210;32;20166;-85
2022/07/02 03:58:00;;;;;;;4.87;2.17;;;;;;;17.02;86.35;98418.56;4371384;32;20095;-86
2022/07/02 04:00:27;;;;;;;3.92;1.90;;;;;;;16.98;86.88;98446.56;4371187;32;20122;-86
2022/07/02 04:02:54;;;;;;;5.10;1.98;;;;;;;17.37;84.79;98446.78;4371238;32;20697;-86
2022/07/02 04:05:21;;;;;;;6.75;1.75;;;;;;;17.27;84.91;98444.75;4371190;32;20165;-85
2022/07/02 04:07:48;;;;;;;4.55;2.20;;;;;;;17.50;83.91;98453.69;4370245;32;20090;-86
2022/07/02 04:10:15;;;;;;;3.87;1.83;;;;;;;17.46;84.05;98456.63;4370152;32;20103;-86
2022/07/02 04:12:42;;;;;;;4.10;1.87;;;;;;;17.32;84.64;98454.88;4370177;32;20115;-86
2022/07/02 04:15:09;;;;;;;4.10;1.98;;;;;;;17.24;85.11;98459.75;4371155;32;20114;-86
2022/07/02 04:17:36;;;;;;;3.20;1.90;;;;;;;17.56;83.39;98455.94;4371100;32;20170;-86
2022/07/02 04:20:03;;;;;;;3.95;1.77;;;;;;;17.72;82.78;98450.56;4370812;32;20126;-86
2022/07/02 04:22:30;;;;;;;4.35;2.05;;;;;;;17.57;83.35;98434.12;4345985;32;20087;-86
2022/07/02 04:24:57;;;;;;;4.65;1.92;;;;;;;17.61;83.50;98451.22;4371500;32;20127;-85
2022/07/02 04:27:24;;;;;;;3.17;1.65;;;;;;;17.89;82.02;98449.47;4372165;32;20125;-86
2022/07/02 04:29:51;;;;;;;2.97;1.77;;;;;;;17.97;81.62;98462.00;4371416;32;20076;-86
2022/07/02 04:32:18;;;;;;;3.33;1.65;;;;;;;18.13;81.03;98467.88;4371889;32;20766;-86
2022/07/02 04:34:46;;;;;;;4.28;1.87;;;;;;;18.62;78.55;98464.56;4371256;32;20096;-86
2022/07/02 04:37:13;;;;;;;4.43;1.60;;;;;;;18.64;78.40;98479.22;4370685;32;20089;-86
2022/07/02 04:39:40;;;;;;;5.25;1.80;;;;;;;18.21;80.08;98476.06;4357288;32;20154;-86
2022/07/02 04:42:07;;;;;;;3.28;1.90;;;;;;;18.52;78.97;98472.22;4369986;32;20119;-85
2022/07/02 04:44:35;;;;;;;2.92;1.70;;;;;;;18.27;79.72;98493.06;4371551;32;20154;-85
2022/07/02 04:47:07;;;;;;;5.62;1.70;;;;;;;18.58;78.68;98487.44;4371573;32;20059;-85
2022/07/02 04:49:34;;;;;;;3.37;1.55;;;;;;;18.93;77.01;98485.06;4371229;32;20184;-86
2022/07/02 04:52:01;;;;;;;3.25;1.70;;;;;;;19.18;75.56;98471.09;4371537;32;20088;-86
2022/07/02 04:54:28;;;;;;;3.72;1.60;;;;;;;19.46;74.50;98490.91;4371402;32;20075;-85
2022/07/02 04:56:55;;;;;;;4.25;1.70;;;;;;;19.59;74.04;98509.19;4372054;32;20142;-86
2022/07/02 04:59:22;;;;;;;4.45;1.98;;;;;;;19.64;73.72;98517.53;4371775;32;20102;-85
2022/07/02 05:01:54;;;;;;;2.97;1.40;;;;;;;19.63;73.21;98518.47;4371413;32;20081;-86
2022/07/02 05:04:21;;;;;;;3.47;1.80;;;;;;;19.72;72.94;98517.81;4370805;32;20474;-85
2022/07/02 05:06:49;;;;;;;3.87;1.80;;;;;;;19.68;73.19;98542.56;4371073;32;20102;-85
2022/07/02 05:09:16;;;;;;;3.40;1.75;;;;;;;19.37;74.88;98534.25;4371419;32;20071;-86
2022/07/02 05:11:43;;;;;;;3.67;1.77;;;;;;;19.94;72.47;98543.28;4357969;32;20108;-86
2022/07/02 05:14:10;;;;;;;3.75;1.80;;;;;;;20.14;71.70;98550.50;4372584;32;20129;-85
2022/07/02 05:16:37;;;;;;;4.05;1.98;;;;;;;20.36;70.37;98539.28;4371227;32;20089;-85
2022/07/02 05:19:04;;;;;;;4.80;1.60;;;;;;;20.38;70.59;98549.62;4371471;32;20075;-86
2022/07/02 05:21:31;;;;;;;3.97;1.90;;;;;;;20.57;69.67;98555.19;4371166;32;20196;-85
2022/07/02 05:23:58;;;;;;;3.03;1.67;;;;;;;20.51;69.64;98551.25;4370882;32;20170;-85
2022/07/02 05:26:26;;;;;;;2.67;1.73;;;;;;;20.40;70.14;98555.59;4357003;32;20077;-86
2022/07/02 05:28:53;;;;;;;3.37;1.70;;;;;;;20.83;68.23;98558.44;4370900;32;20165;-86
2022/07/02 05:31:20;;;;;;;4.43;1.70;;;;;;;21.20;67.01;98560.87;4370907;32;20111;-86
2022/07/02 05:33:47;;;;;;;2.95;1.65;;;;;;;21.42;66.12;98558.28;4370964;32;20724;-85
2022/07/02 05:36:16;;;;;;;2.97;1.60;;;;;;;21.56;65.37;98575.53;4370460;32;20170;-86
2022/07/02 05:38:43;;;;;;;3.65;1.80;;;;;;;21.56;65.22;98570.28;4370049;32;20147;-86
2022/07/02 05:41:10;;;;;;;2.55;1.65;;;;;;;21.51;65.62;98586.44;4370476;32;20111;-86
2022/07/02 05:43:37;;;;;;;4.18;1.83;;;;;;;21.78;64.49;98577.28;4371078;32;20066;-85
2022/07/02 05:46:04;;;;;;;2.90;1.67;;;;;;;21.95;62.92;98563.66;4370160;32;20077;-86
2022/07/02 05:48:31;;;;;;;2.70;1.50;;;;;;;21.54;64.90;98580.91;4357678;32;20083;-85
2022/07/02 05:50:59;;;;;;;4.62;1.55;;;;;;;21.98;63.48;98592.28;4369599;32;20143;-86
2022/07/02 05:53:26;;;;;;;4.12;1.65;;;;;;;21.76;63.38;98587.09;4369231;32;20083;-86
2022/07/02 05:55:54;;;;;;;4.82;1.75;;;;;;;21.41;65.22;98592.50;4369732;32;20121;-86
2022/07/02 05:58:21;;;;;;;3.70;1.55;;;;;;;21.90;63.44;98582.41;4357508;32;20120;-86
2022/07/02 06:00:48;;;;;;;2.85;1.42;;;;;;;21.93;63.24;98578.69;4369341;32;20092;-86
2022/07/02 06:03:15;;;;;;;3.53;1.40;;;;;;;21.52;63.92;98579.38;4370462;32;20099;-86
2022/07/02 06:08:28;;;;;;;3.70;1.45;;;;;;;21.65;63.53;98591.41;4369031;32;20158;-85
2022/07/02 06:10:55;;;;;;;3.12;1.60;;;;;;;22.13;61.54;98571.88;4368998;32;20784;-86
2022/07/02 06:13:22;;;;;;;2.67;1.40;;;;;;;21.98;62.13;98576.53;4368489;32;20094;-86
2022/07/02 06:15:49;;;;;;;3.20;1.60;;;;;;;22.03;62.08;98584.06;4367932;32;20828;-85
2022/07/02 06:18:16;;;;;;;2.67;1.80;;;;;;;21.57;63.23;98585.09;4369433;32;20101;-86
2022/07/02 06:20:43;;;;;;;2.30;1.30;;;;;;;22.18;61.33;98578.41;4355395;32;20159;-86
2022/07/02 06:23:10;;;;;;;2.58;1.40;;;;;;;22.19;60.74;98581.84;4368680;32;20126;-86
2022/07/02 06:25:37;;;;;;;3.62;1.52;;;;;;;22.45;60.29;98585.81;4369760;32;20158;-85
2022/07/02 06:28:04;;;;;;;4.35;1.60;;;;;;;22.56;60.24;98587.56;4369379;32;20151;-85
2022/07/02 06:30:31;;;;;;;2.42;1.40;;;;;;;22.74;58.64;98582.53;4368896;32;20123;-85
2022/07/02 06:32:58;;;;;;;2.20;1.35;;;;;;;22.56;59.26;98578.84;4368434;32;20154;-85
2022/07/02 06:35:25;;;;;;;3.62;1.60;;;;;;;22.42;59.44;98566.81;4368783;32;20103;-85
2022/07/02 06:37:53;;;;;;;4.37;1.58;;;;;;;22.41;59.62;98587.00;4368851;32;20127;-86
2022/07/02 06:40:20;;;;;;;2.75;1.50;;;;;;;22.25;60.18;98583.16;4368659;32;20151;-85
2022/07/02 06:42:47;;;;;;;4.03;1.58;;;;;;;22.30;59.52;98567.84;4368829;32;20114;-85
2022/07/02 06:45:14;;;;;;;2.72;1.60;;;;;;;21.98;60.29;98576.53;4368220;32;20458;-85
2022/07/02 06:47:42;;;;;;;2.55;1.40;;;;;;;21.69;61.99;98584.09;4355341;32;20146;-85
2022/07/02 06:50:10;;;;;;;5.93;1.70;;;;;;;22.32;60.18;98571.16;4368248;32;20434;-85
2022/07/02 06:52:37;;;;;;;3.03;1.40;;;;;;;22.42;60.18;98579.97;4356576;32;20186;-85
2022/07/02 06:55:05;;;;;;;2.45;1.40;;;;;;;22.65;58.96;98581.53;4355582;32;20146;-85
2022/07/02 06:57:32;;;;;;;4.65;1.35;;;;;;;23.11;57.07;98575.03;4369115;32;20075;-85
2022/07/02 06:59:59;;;;;;;2.60;1.48;;;;;;;23.38;56.69;98575.25;4369297;32;20095;-85
2022/07/02 07:02:26;;;;;;;4.45;1.42;;;;;;;23.41;55.77;98565.47;4355365;32;20087;-85
2022/07/02 07:04:53;;;;;;;2.53;1.40;;;;;;;23.45;55.68;98577.38;4368542;32;20111;-85
2022/07/02 07:07:26;;;;;;;1.48;1.12;;;;;;;23.05;57.06;98581.63;4369202;32;20437;-85
2022/07/02 07:09:56;;;;;;;4.40;1.87;;;;;;;23.03;57.12;98596.72;4368411;32;20079;-85
2022/07/02 07:12:24;;;;;;;3.28;1.70;;;;;;;23.70;55.75;98603.25;4369450;32;20123;-85
2022/07/02 07:14:52;;;;;;;5.62;1.80;;;;;;;23.84;54.46;98595.00;4355687;32;20083;-85
2022/07/02 07:17:19;;;;;;;3.58;1.75;;;;;;;23.63;55.20;98594.25;4353859;32;20059;-85
2022/07/02 07:19:46;;;;;;;2.95;1.60;;;;;;;24.21;53.63;98610.16;4367994;32;20170;-85
2022/07/02 07:22:13;;;;;;;3.42;1.58;;;;;;;23.84;54.07;98604.69;4367447;32;20150;-86
2022/07/02 07:24:40;;;;;;;3.75;1.80;;;;;;;23.74;54.27;98606.47;4367270;32;20138;-85
2022/07/02 07:27:08;;;;;;;2.47;1.50;;;;;;;23.84;54.38;98604.69;4365692;32;20075;-85
2022/07/02 07:29:35;;;;;;;6.03;1.55;;;;;;;24.25;52.99;98616.84;4365637;32;20139;-85
2022/07/02 07:32:02;;;;;;;4.93;2.58;;;;;;;24.38;52.32;98622.69;4366390;32;20117;-85
2022/07/02 07:34:29;;;;;;;3.97;1.67;;;;;;;24.56;51.66;98632.53;4367089;32;20055;-84
2022/07/02 07:36:58;;;;;;;4.78;1.87;;;;;;;24.46;51.57;98635.19;4367122;32;20720;-86
2022/07/02 07:39:25;;;;;;;2.72;1.60;;;;;;;23.76;53.13;98634.34;4367424;32;20743;-85
2022/07/02 07:41:52;;;;;;;5.82;1.70;;;;;;;23.46;54.73;98647.50;4367282;32;20143;-85
2022/07/02 07:44:19;;;;;;;5.50;1.83;;;;;;;23.86;53.57;98669.47;4366387;32;20493;-85
2022/07/02 07:46:47;;;;;;;2.90;1.58;;;;;;;23.72;53.55;98669.00;4367351;32;20099;-85
2022/07/02 07:49:15;;;;;;;3.33;1.45;;;;;;;23.52;53.48;98668.06;4367182;32;20652;-85
2022/07/02 07:51:42;;;;;;;4.90;1.80;;;;;;;22.78;55.57;98676.88;4366987;32;20158;-85
2022/07/02 07:54:09;;;;;;;2.42;1.40;;;;;;;23.04;55.12;98668.63;4367544;32;20078;-85
2022/07/02 07:56:41;;;;;;;4.95;1.70;;;;;;;23.24;54.97;98686.22;4367460;32;20411;-85
2022/07/02 07:59:08;;;;;;;2.70;1.62;;;;;;;23.20;54.98;98678.72;4367373;32;20107;-85
2022/07/02 08:01:35;;;;;;;4.28;1.75;;;;;;;23.28;55.32;98682.34;4366848;32;20133;-85
2022/07/02 08:04:03;;;;;;;3.12;1.60;;;;;;;23.26;54.82;98681.63;4366848;32;20166;-85
2022/07/02 08:06:30;;;;;;;4.50;1.75;;;;;;;23.81;54.11;98689.25;4366025;32;20083;-85
2022/07/02 08:08:58;;;;;;;3.25;1.90;;;;;;;23.95;53.73;98683.66;4365849;32;20111;-85
2022/07/02 08:11:26;;;;;;;4.40;1.80;;;;;;;23.94;54.00;98685.44;4366392;32;20072;-85
2022/07/02 08:13:53;;;;;;;3.12;1.50;;;;;;;24.23;53.55;98685.50;4367600;32;20090;-85
2022/07/02 08:16:21;;;;;;;2.97;1.60;;;;;;;24.41;52.33;98693.62;4367534;32;20055;-85
2022/07/02 08:18:48;;;;;;;5.15;1.87;;;;;;;23.36;54.26;98695.69;4367090;32;20136;-86
2022/07/02 08:21:15;;;;;;;4.07;1.70;;;;;;;23.79;53.58;98699.94;4367295;32;20107;-85
2022/07/02 08:23:42;;;;;;;4.57;1.90;;;;;;;23.73;54.10;98687.31;4366536;32;20121;-85
2022/07/02 08:26:09;;;;;;;4.15;1.58;;;;;;;23.96;53.51;98693.22;4366193;32;20129;-85
2022/07/02 08:28:36;;;;;;;3.10;1.58;;;;;;;23.99;54.05;98684.19;4366812;32;20095;-86
2022/07/02 08:31:03;;;;;;;2.28;1.58;;;;;;;24.21;54.06;98690.06;4366689;32;20430;-85
2022/07/02 08:33:30;;;;;;;3.55;1.75;;;;;;;24.13;53.80;98671.47;4367126;32;20094;-86
2022/07/02 08:35:57;;;;;;;3.22;1.70;;;;;;;24.49;52.90;98670.03;4365589;32;20139;-86
2022/07/02 08:38:24;;;;;;;2.50;1.70;;;;;;;24.76;52.40;98673.75;4366985;32;20147;-86
2022/07/02 08:40:51;;;;;;;2.65;1.65;;;;;;;24.72;51.91;98675.03;4368517;32;20231;-85
2022/07/02 08:43:22;;;;;;;5.68;1.92;;;;;;;24.70;52.33;98669.91;4369363;32;20098;-86
2022/07/02 08:45:56;;;;;;;3.15;1.60;;;;;;;24.89;50.89;98678.78;4368986;32;20170;-85
2022/07/02 08:48:26;;;;;;;2.83;1.70;;;;;;;24.34;52.34;98684.56;4355453;32;20067;-86
2022/07/02 08:50:54;;;;;;;2.92;1.60;;;;;;;24.27;53.00;98687.88;4355785;32;20103;-86
2022/07/02 08:53:22;;;;;;;4.97;1.70;;;;;;;24.39;52.57;98679.75;4369396;32;20099;-86
2022/07/02 08:55:50;;;;;;;4.35;1.70;;;;;;;23.94;53.46;98682.81;4369876;32;20075;-85
2022/07/02 08:58:18;;;;;;;3.17;1.80;;;;;;;24.23;53.26;98674.94;4369823;32;20091;-86
2022/07/02 09:00:46;;;;;;;2.08;1.50;;;;;;;23.90;53.19;98684.03;4369309;32;20147;-85
2022/07/02 09:03:14;;;;;;;4.12;1.60;;;;;;;24.37;52.86;98673.78;4353420;32;20141;-85
2022/07/02 09:05:42;;;;;;;3.67;1.70;;;;;;;25.50;49.47;98670.44;4365624;32;20114;-85
2022/07/02 09:08:15;;;;;;;3.42;1.75;;;;;;;25.93;48.02;98675.16;4366265;32;20720;-85
2022/07/02 09:10:42;;;;;;;4.07;1.58;;;;;;;26.19;47.34;98678.78;4368408;32;20158;-85
2022/07/02 09:13:12;;;;;;;3.33;1.70;;;;;;;25.91;48.40;98679.75;4352820;32;20121;-85
2022/07/02 09:15:39;;;;;;;4.03;1.80;;;;;;;25.98;47.70;98678.19;4351942;32;20472;-84
2022/07/02 09:18:06;;;;;;;3.05;1.50;;;;;;;26.53;46.76;98680.78;4365881;32;20113;-84
2022/07/02 09:20:33;;;;;;;4.05;1.60;;;;;;;26.41;46.32;98682.00;4365740;32;20178;-85
2022/07/02 09:23:00;;;;;;;2.47;1.40;;;;;;;26.35;47.05;98658.75;4365396;32;20138;-84
2022/07/02 09:25:27;;;;;;;3.70;1.60;;;;;;;26.38;46.53;98659.34;4366166;32;20099;-85
2022/07/02 09:28:00;;;;;;;2.37;1.50;;;;;;;26.23;46.65;98664.25;4352789;32;20163;-84
2022/07/02 09:30:32;;;;;;;2.67;1.52;;;;;;;26.34;46.27;98657.09;4352114;32;20510;-85
2022/07/02 09:35:46;;;;;;;2.72;1.60;;;;;;;26.55;45.05;98657.66;4367177;32;20163;-85
2022/07/02 09:38:13;;;;;;;3.45;1.50;;;;;;;26.60;45.13;98654.56;4367616;32;20118;-84
2022/07/02 09:41:01;;;;;;;5.70;1.65;;;;;;;26.26;46.27;98668.41;4366297;32;20125;-85
2022/07/02 09:43:30;;;;;;;4.12;1.50;;;;;;;26.38;45.75;98666.44;4352505;32;20094;-84
2022/07/02 09:45:58;;;;;;;3.00;1.50;;;;;;;27.02;44.60;98663.53;4366500;32;20122;-85
2022/07/02 09:48:25;;;;;;;3.80;1.80;;;;;;;27.05;44.02;98654.44;4366451;32;20111;-84
2022/07/02 09:50:53;;;;;;;3.22;1.48;;;;;;;27.03;43.85;98649.31;4364971;32;20514;-85
2022/07/02 09:53:20;;;;;;;2.75;1.50;;;;;;;27.03;44.17;98651.97;4366273;32;20091;-85
2022/07/02 09:55:49;;;;;;;4.53;1.80;;;;;;;26.78;44.86;98658.84;4352595;32;20158;-84
2022/07/02 09:58:24;;;;;;;4.10;1.70;;;;;;;26.94;44.71;98660.78;4365819;32;20080;-85
2022/07/02 10:00:53;;;;;;;3.75;1.70;;;;;;;27.05;44.19;98662.41;4365944;32;20477;-84
2022/07/02 10:03:20;;;;;;;3.05;1.70;;;;;;;27.08;44.24;98654.13;4366200;32;20086;-85
2022/07/02 10:05:54;;;;;;;4.90;1.80;;;;;;;26.89;44.81;98652.47;4365096;32;20158;-84
2022/07/02 10:08:22;;;;;;;4.12;1.70;;;;;;;27.34;43.57;98651.50;4365919;32;20103;-85
2022/07/02 10:10:49;;;;;;;2.80;1.60;;;;;;;27.54;43.45;98657.38;4366405;32;20422;-85
2022/07/02 10:13:17;;;;;;;3.17;1.70;;;;;;;27.28;43.26;98641.50;4365828;32;20110;-85
2022/07/02 10:15:58;;;;;;;5.32;1.70;;;;;;;27.37;43.61;98643.22;4365526;32;20580;-85
2022/07/02 10:18:26;;;;;;;3.03;1.70;;;;;;;27.32;43.74;98648.16;4365425;32;20111;-85
2022/07/02 10:20:56;;;;;;;4.30;1.90;;;;;;;27.62;43.86;98660.06;4365072;32;20142;-84
2022/07/02 10:23:24;;;;;;;3.00;1.75;;;;;;;28.24;42.38;98644.72;4365184;32;20149;-85
2022/07/02 10:25:52;;;;;;;4.03;1.80;;;;;;;28.50;42.65;98648.12;4364696;32;20098;-84
2022/07/02 10:28:19;;;;;;;3.37;1.60;;;;;;;28.06;42.51;98655.44;4365675;32;20115;-85
2022/07/02 10:30:46;;;;;;;4.40;1.60;;;;;;;27.49;43.42;98663.16;4366071;32;20151;-84
2022/07/02 10:33:39;;;;;;;3.90;1.62;;;;;;;27.46;43.79;98657.34;4365053;32;20445;-85
2022/07/02 10:36:10;;;;;;;4.78;1.52;;;;;;;27.57;43.39;98654.44;4351946;32;20129;-84
2022/07/02 10:38:43;;;;;;;4.57;2.00;;;;;;;27.48;43.31;98655.38;4352002;32;20236;-85
2022/07/02 10:41:10;;;;;;;7.05;1.77;;;;;;;26.84;44.42;98646.00;4352170;32;20154;-85
2022/07/02 10:43:38;;;;;;;3.65;1.85;;;;;;;27.23;44.72;98647.28;4364836;32;20166;-85
2022/07/02 10:46:06;;;;;;;2.92;1.85;;;;;;;27.42;43.50;98648.88;4364505;32;20154;-85
2022/07/02 10:48:35;;;;;;;4.47;1.60;;;;;;;27.77;43.13;98634.66;4364990;32;20125;-85
2022/07/02 10:51:02;;;;;;;3.40;1.65;;;;;;;27.18;43.82;98638.97;4364776;32;20180;-85
2022/07/02 10:53:30;;;;;;;5.00;1.70;;;;;;;27.32;43.92;98630.44;4364430;32;20086;-85
2022/07/02 10:55:59;;;;;;;4.37;1.80;;;;;;;27.35;43.87;98624.00;4364694;32;20091;-84
2022/07/02 10:58:31;;;;;;;3.53;1.80;;;;;;;27.84;44.05;98637.47;4364878;32;20099;-85
2022/07/02 11:01:17;;;;;;;2.92;1.70;;;;;;;27.38;43.59;98618.38;4351254;32;20165;-84
2022/07/02 11:03:58;;;;;;;2.87;1.70;;;;;;;27.38;43.63;98624.50;4364400;32;20141;-84
2022/07/02 11:06:27;;;;;;;2.53;1.60;;;;;;;28.08;42.50;98624.31;4364111;32;20126;-84
2022/07/02 11:09:05;;;;;;;5.30;1.85;;;;;;;28.14;42.29;98623.66;4364322;32;20110;-84
2022/07/02 11:11:35;;;;;;;6.28;1.85;;;;;;;28.33;42.38;98630.50;4364508;32;20103;-85
2022/07/02 11:14:04;;;;;;;7.55;2.15;;;;;;;28.69;41.50;98615.09;4364275;32;20567;-84
2022/07/02 11:16:38;;;;;;;4.95;2.00;;;;;;;28.41;42.29;98629.69;4364336;32;20459;-84
2022/07/02 11:19:13;;;;;;;3.03;1.85;;;;;;;28.71;41.99;98626.41;4364576;32;20096;-84
2022/07/02 11:21:40;;;;;;;3.05;1.73;;;;;;;29.36;40.77;98621.00;4364156;32;20172;-84
2022/07/02 11:24:10;;;;;;;5.20;2.10;;;;;;;29.49;40.04;98627.63;4364413;32;20083;-84
2022/07/02 11:26:41;;;;;;;3.03;1.80;;;;;;;28.55;40.63;98626.38;4364272;32;20178;-84
2022/07/02 11:29:09;;;;;;;3.87;1.75;;;;;;;29.13;40.09;98632.50;4350800;32;20115;-83
2022/07/02 11:31:38;;;;;;;3.05;1.90;;;;;;;29.01;39.79;98624.88;4364162;32;20178;-84
2022/07/02 11:34:05;;;;;;;5.57;1.73;;;;;;;28.62;39.95;98632.69;4364290;32;20095;-84
2022/07/02 11:36:32;;;;;;;3.80;1.83;;;;;;;28.42;40.26;98623.41;4363995;32;20126;-84
2022/07/02 11:38:59;;;;;;;3.40;1.80;;;;;;;28.55;40.10;98623.72;4338745;32;20146;-84
2022/07/02 11:41:29;;;;;;;3.47;1.90;;;;;;;28.48;40.97;98615.59;4350816;32;20131;-83
2022/07/02 11:43:57;;;;;;;3.58;1.98;;;;;;;28.81;40.72;98619.06;4363882;32;20111;-84
2022/07/02 11:46:28;;;;;;;4.95;1.90;;;;;;;28.03;41.60;98617.81;4363997;32;20121;-85